Current Weather

Buchanan Fld

Concord, California (KCCR)

Report from: Wednesday, April 24, 2024 10:53 AM PDT
Current time: Wednesday, April 24, 2024 11:43 AM PDT

Nearby weather – Weather history – Daily summaries
Weather forecast

Temperature15.6°C (60.1°F)
Dew point7.2°C (45.0°F)
Winds 9 kts (4.6 m/s, 10.4 mph) Southwest (220°)
Visibility10 mi. (16.1 km)
Clouds Ceiling: Overcast 4,400 ft. (1,341 m)
Altimeter30.08 in.Hg (1019 mB)
Relative humidity57 %
Density altitude81 ft. (25 m)
Sea-level pressure101.7 kPa (1017 mB, 30.04 in.Hg)
Max temp last 6 hours16.1°C (61.0°F)
Min temp last 6 hours13.9°C (57.0°F)
Remarks Automated weather observing station with precipitation discriminator
Pressure rising more slowly
Flight conditions Visual Meteorological Conditions
Raw dataKCCR 241753Z 22009KT 10SM OVC044 16/07 A3008 RMK AO2 SLP173 T01560072 10161 20139 51008
An error has occurred. This application may no longer respond until reloaded. Reload 🗙